Date,TemperatureHighF,TemperatureAvgF,TemperatureLowF,DewpointHighF,DewpointAvgF,DewpointLowF,HumidityHigh,HumidityAvg,HumidityLow,PressureMaxIn,PressureMinIn,WindSpeedMaxMPH,WindSpeedAvgMPH,GustSpeedMaxMPH,PrecipitationSumIn
2013-1-1,58.7,47.7,42.0,42.7,36.9,31.3,88,68,39,30.25,30.18,10,2,13,0.00
2013-1-2,58.7,49.1,39.5,36.7,32.5,27.7,77,54,39,30.20,30.09,16,6,18,0.00
2013-1-3,58.7,49.3,43.5,44.6,36.2,32.3,84,62,38,30.23,30.11,17,7,21,0.00
2013-1-4,59.6,49.0,43.2,47.6,40.0,36.4,82,71,59,30.26,30.15,10,2,17,0.00
2013-1-5,50.4,48.0,46.1,45.2,42.8,38.4,90,82,67,30.21,30.00,15,9,18,0.41
2013-1-6,58.1,49.3,43.9,49.4,44.5,40.9,90,84,66,30.17,30.02,8,1,16,0.02
2013-1-7,60.3,51.2,43.8,53.4,46.6,39.9,91,84,73,30.22,30.13,6,1,19,0.00
2013-1-8,60.0,51.1,44.6,52.0,47.3,42.1,92,87,73,30.22,30.09,5,0,10,0.00
2013-1-9,53.7,48.4,42.4,49.8,43.8,35.7,91,84,72,30.13,29.97,13,2,24,0.04
2013-1-10,52.4,44.9,37.4,41.7,36.9,32.5,84,74,61,30.20,30.06,12,4,24,0.00
2013-1-11,52.2,44.9,39.4,43.7,37.6,32.8,84,76,66,30.24,30.11,9,2,14,0.00
2013-1-12,53.2,44.1,36.6,40.1,34.5,30.8,82,69,48,30.23,30.10,6,2,7,0.00
2013-1-13,52.6,42.6,35.8,38.7,32.8,27.2,83,69,54,30.23,30.16,6,2,8,0.00
2013-1-14,55.9,45.8,36.0,39.4,28.3,16.8,82,53,28,30.36,30.21,5,1,8,0.00
2013-1-15,55.1,46.0,39.2,44.5,37.7,32.8,89,74,47,30.44,30.35,9,2,12,0.00
2013-1-16,49.4,44.7,42.5,39.3,34.1,31.3,88,66,55,30.41,30.23,9,4,13,0.00
2013-1-17,58.4,46.8,40.8,44.4,36.8,32.0,87,69,50,30.24,30.13,6,1,7,0.00
2013-1-18,62.2,50.8,40.2,49.5,42.1,34.8,87,73,50,30.18,30.10,4,0,10,0.00
2013-1-19,66.2,55.0,43.8,49.4,37.4,25.7,72,53,30,30.20,30.12,13,2,0,0.00
2013-1-20,67.1,57.2,48.8,49.5,35.2,25.4,60,45,27,30.17,30.09,15,4,0,0.00
2013-1-21,70.1,56.2,46.4,44.2,35.3,28.2,68,46,30,30.14,30.01,17,5,21,0.00
2013-1-22,65.4,57.4,51.7,40.1,34.9,28.4,54,43,31,30.04,29.94,21,14,28,0.00
2013-1-23,57.4,55.2,50.7,50.7,43.4,38.9,89,66,50,30.04,29.90,15,10,18,0.52
2013-1-24,59.5,54.3,51.2,54.4,50.6,48.1,91,88,82,30.17,30.02,10,1,13,0.00
2013-1-25,61.2,54.1,49.6,55.3,50.9,47.1,91,89,80,30.17,30.03,3,0,6,0.00
2013-1-26,55.8,50.5,44.3,49.3,45.5,38.8,92,83,73,30.06,29.98,13,4,22,0.00
2013-1-27,54.3,47.5,41.2,45.2,40.1,35.0,82,76,62,30.17,30.05,10,4,21,0.00
2013-1-28,56.0,48.8,43.6,46.9,42.6,37.6,88,79,67,30.28,30.16,12,4,23,0.00
2013-1-29,57.0,50.3,45.5,48.9,44.2,40.6,89,80,70,30.34,30.26,7,3,19,0.00
2013-1-30,62.7,50.3,42.6,50.2,43.9,39.2,89,79,52,30.31,30.24,2,0,6,0.00
2013-1-31,61.0,50.0,42.0,50.3,43.2,37.2,88,78,62,30.26,30.15,3,0,3,0.00
2013-2-1,70.6,54.9,43.0,50.2,44.7,39.7,90,70,40,30.20,30.09,10,2,15,0.00
2013-2-2,56.8,49.2,43.6,50.0,45.0,40.8,90,86,76,30.23,30.20,6,1,8,0.00
2013-2-3,58.9,49.6,42.9,50.2,45.2,40.2,91,85,68,30.23,30.12,5,1,10,0.00
2013-2-4,49.9,47.0,43.3,46.8,44.4,40.9,92,91,88,30.15,30.06,6,1,9,0.01
2013-2-5,56.5,49.9,45.1,50.5,46.0,42.1,91,86,77,30.13,30.05,7,2,12,0.00
2013-2-6,58.0,48.3,40.3,50.0,43.1,36.5,90,83,69,30.18,30.11,8,1,12,0.00
2013-2-7,56.4,48.8,39.7,49.8,44.0,37.0,92,84,62,30.13,29.97,9,2,13,0.23
2013-2-8,55.2,44.9,38.0,46.7,39.5,34.7,91,82,67,30.00,29.92,8,1,17,0.00
2013-2-9,58.7,46.7,38.2,43.8,35.5,27.4,80,65,42,30.07,29.99,7,1,7,0.00
2013-2-10,60.8,48.8,39.9,49.3,38.4,28.7,90,68,46,30.08,30.01,3,0,6,0.00
2013-2-11,63.5,50.4,42.9,49.7,41.0,29.5,91,71,33,30.19,30.05,4,1,6,0.00
2013-2-12,55.7,47.5,39.2,49.0,43.5,37.1,92,86,74,30.35,30.19,4,1,7,0.00
2013-2-13,56.8,47.1,38.0,49.5,43.3,35.8,92,87,74,30.33,30.18,4,0,6,0.01
2013-2-14,65.3,48.8,39.9,52.9,44.7,37.8,93,86,63,30.23,30.15,3,0,4,0.01
2013-2-15,73.6,59.3,45.7,49.2,43.0,39.3,83,57,34,30.24,30.17,9,1,10,0.00
2013-2-16,64.1,53.6,45.5,52.5,46.1,41.5,91,76,61,30.21,30.03,4,1,11,0.00
2013-2-17,60.8,49.5,41.4,48.6,43.0,36.8,91,79,56,30.04,29.95,4,1,10,0.00
2013-2-18,54.8,46.6,39.1,46.0,41.7,36.4,91,83,69,30.00,29.92,13,4,22,0.01
2013-2-19,50.0,45.3,39.1,44.2,39.4,33.1,91,80,67,29.95,29.73,13,5,19,0.40
2013-2-20,54.4,46.9,38.5,45.4,39.6,32.7,85,76,58,30.05,29.84,13,4,22,0.00
2013-2-21,56.6,49.1,42.3,46.4,41.4,35.3,84,75,65,30.16,30.04,6,2,13,0.00
2013-2-22,58.2,48.9,41.7,48.3,42.6,35.2,90,79,60,30.25,30.15,7,2,14,0.00
2013-2-23,54.4,48.3,41.7,45.5,41.1,35.5,91,77,57,30.26,30.15,14,4,20,0.01
2013-2-24,57.3,48.6,40.2,46.3,38.9,28.8,88,70,47,30.25,30.13,6,1,8,0.00
2013-2-25,56.7,48.8,42.2,49.2,42.5,36.6,88,79,70,30.25,30.14,8,2,16,0.00
2013-2-26,61.2,47.6,38.5,47.0,39.8,31.8,88,75,56,30.20,30.14,5,1,7,0.00
2013-2-27,60.4,48.7,40.1,47.7,42.6,35.4,90,80,55,30.34,30.19,8,1,13,0.00
2013-2-28,58.6,50.9,46.0,53.2,47.5,43.5,91,88,80,30.44,30.34,5,1,11,0.00
2013-3-1,61.2,48.5,41.4,53.4,45.0,39.3,92,88,72,30.42,30.23,3,0,5,0.01
2013-3-2,61.2,49.5,42.5,54.3,46.2,39.9,91,89,74,30.23,30.05,4,0,8,0.01
2013-3-3,56.2,50.0,44.3,50.6,46.8,41.6,91,89,79,30.08,30.02,6,2,12,0.00
2013-3-4,52.7,46.7,40.3,47.0,43.1,37.3,92,87,75,30.13,30.03,6,1,7,0.00
2013-3-5,54.2,47.8,39.0,48.0,43.7,36.3,91,86,76,30.05,29.75,23,10,29,0.71
2013-3-6,55.4,49.3,43.6,50.0,44.9,40.9,91,85,70,30.04,29.78,21,6,21,0.14
2013-3-7,53.8,47.7,43.9,47.2,43.3,39.4,91,85,64,29.97,29.85,9,3,14,0.01
2013-3-8,55.2,48.4,39.8,47.8,42.7,35.7,86,81,70,30.02,29.83,15,5,25,0.00
2013-3-9,58.9,50.1,42.0,50.7,43.8,36.9,89,79,65,30.29,30.02,7,1,12,0.00
2013-3-10,60.2,49.6,41.2,51.9,44.9,38.2,91,84,65,30.33,30.23,5,1,9,0.00
2013-3-11,58.7,48.7,39.7,51.5,44.9,37.1,91,87,72,30.25,30.09,4,0,6,0.01
2013-3-12,58.6,48.9,42.3,52.6,45.7,39.9,91,89,79,30.15,30.08,5,1,11,0.01
2013-3-13,64.2,49.3,41.7,55.8,45.9,39.5,92,88,69,30.16,30.06,7,0,10,0.01
2013-3-14,56.2,48.3,43.8,51.8,45.5,41.3,92,90,84,30.17,30.07,6,1,12,0.01
2013-3-15,60.4,50.5,44.0,52.6,46.8,41.3,91,87,71,30.12,30.02,10,2,19,0.00
2013-3-16,61.5,50.8,44.7,53.2,46.7,42.1,92,86,74,30.13,29.99,9,3,18,0.01
2013-3-17,57.6,50.5,45.4,49.8,45.4,41.8,90,83,71,30.13,30.03,7,2,17,0.00
2013-3-18,58.7,49.0,40.5,49.7,44.4,37.8,91,84,68,30.11,30.01,6,1,9,0.00
2013-3-19,56.4,50.9,46.7,50.6,45.3,41.9,88,81,71,30.11,30.03,13,2,20,0.12
2013-3-20,56.0,50.1,44.1,53.4,47.3,41.8,92,90,78,30.12,30.02,10,2,13,0.83
2013-3-21,56.6,48.8,41.3,47.6,43.3,38.0,92,82,70,30.13,30.01,8,2,15,0.01
2013-3-22,58.1,48.5,39.4,46.5,41.5,34.6,89,77,56,30.12,30.03,7,2,12,0.00
2013-3-23,58.6,48.7,39.9,49.2,42.9,35.8,89,81,66,30.14,30.02,5,1,10,0.00
2013-3-24,58.1,48.2,41.7,49.6,44.0,38.7,91,85,69,30.08,29.95,6,1,10,0.00
2013-3-25,55.7,47.8,40.7,48.7,44.0,38.3,91,87,75,30.02,29.92,9,2,14,0.01
2013-3-26,57.8,49.2,40.8,50.6,44.8,38.2,91,85,72,29.99,29.94,3,0,6,0.00
2013-3-27,53.5,50.1,45.4,50.6,47.4,42.3,91,90,89,29.99,29.92,5,1,6,0.01
2013-3-28,59.8,53.1,48.9,54.9,49.9,46.0,91,89,80,30.08,29.97,9,1,12,0.15
2013-3-29,64.0,52.2,44.3,56.4,48.6,41.8,91,88,73,30.08,30.00,8,0,10,0.00
2013-3-30,60.3,53.0,48.7,54.8,49.5,45.9,91,88,81,30.07,29.98,10,2,11,0.10
2013-3-31,60.5,54.3,51.3,55.1,51.1,48.4,91,89,82,30.04,29.98,11,4,13,0.07
2013-4-1,63.8,55.2,47.8,55.6,51.0,45.0,91,86,70,30.14,30.01,4,0,6,0.01
2013-4-2,57.4,50.2,47.0,52.9,47.3,44.5,91,90,84,30.18,30.09,6,1,9,0.01
2013-4-3,56.8,48.8,42.9,52.6,45.9,40.5,91,90,85,30.12,29.98,5,1,9,0.01
2013-4-4,54.4,52.1,48.7,51.3,49.4,46.2,91,90,90,30.09,29.95,13,4,16,0.97
2013-4-5,62.0,54.4,52.3,57.0,51.4,49.5,91,90,82,30.17,30.09,6,0,7,0.03
2013-4-6,58.7,54.0,51.5,56.1,51.2,49.0,92,90,88,30.16,30.11,6,2,10,0.10
2013-4-7,59.7,53.8,48.1,56.3,50.7,44.9,92,89,83,30.15,29.83,18,5,23,0.29
2013-4-8,58.6,51.4,44.4,49.7,43.9,37.1,89,76,56,30.04,29.82,18,6,27,0.00
2013-4-9,60.3,52.3,43.6,51.5,46.1,39.2,88,80,66,30.11,30.04,10,2,15,0.00
2013-4-10,62.5,53.3,47.3,54.0,48.7,43.9,91,85,71,30.18,30.07,10,3,18,0.00
2013-4-11,61.5,51.6,45.7,52.4,46.7,42.6,91,84,68,30.09,29.84,9,4,16,0.00
2013-4-12,60.4,49.7,43.0,52.8,45.6,40.6,91,86,73,29.91,29.83,8,2,14,0.00
2013-4-13,56.8,50.3,46.0,49.5,45.0,41.7,89,82,71,29.90,29.83,10,4,17,0.00
2013-4-14,55.4,49.0,44.3,46.5,43.1,39.2,91,80,69,29.93,29.87,10,4,18,0.00
2013-4-15,53.5,47.4,42.5,45.8,41.6,37.4,91,80,72,29.97,29.86,18,8,30,0.01
2013-4-16,58.0,49.2,39.2,47.4,41.1,32.8,86,74,60,30.16,29.97,9,2,16,0.00
2013-4-17,60.8,51.4,42.3,48.2,42.7,35.2,88,73,48,30.28,30.15,7,2,16,0.00
2013-4-18,59.3,49.8,43.1,51.2,44.9,39.8,90,83,70,30.26,30.17,4,1,6,0.00
2013-4-19,63.9,51.7,43.2,52.9,46.7,40.8,91,84,65,30.22,30.08,10,2,20,0.00
2013-4-20,60.2,50.9,44.2,51.9,46.2,41.2,90,84,72,30.10,29.98,8,2,11,0.00
2013-4-21,63.1,52.2,43.1,53.4,46.9,40.5,91,83,68,30.03,29.92,3,0,5,0.00
2013-4-22,73.1,56.7,46.0,57.7,49.7,43.2,90,79,54,29.95,29.84,2,0,4,0.00
2013-4-23,58.9,50.2,45.8,52.2,46.6,43.3,91,87,70,29.95,29.83,4,1,4,0.00
2013-4-24,51.7,48.1,45.2,48.0,45.2,42.7,92,90,86,29.95,29.82,5,1,6,0.00
2013-4-25,60.5,53.7,49.5,52.2,48.7,46.4,89,83,72,30.12,29.95,5,1,7,0.00
2013-4-26,56.6,51.3,48.4,51.2,47.6,45.6,90,87,81,30.23,30.11,7,3,13,0.00
2013-4-27,55.7,49.6,46.0,50.8,46.5,43.5,91,89,83,30.22,30.04,6,1,11,0.00
2013-4-28,63.9,51.4,41.8,54.4,47.1,39.4,91,86,69,30.04,29.87,3,0,5,0.01
2013-4-29,63.9,54.7,48.2,55.9,49.4,45.3,91,83,69,29.90,29.79,11,3,18,0.00
2013-4-30,61.9,53.4,45.7,49.9,46.3,42.6,90,77,60,29.86,29.78,9,2,14,0.00
2013-5-1,70.4,55.0,46.7,54.0,45.2,30.3,88,71,37,30.07,29.85,8,1,11,0.00
2013-5-2,81.8,64.3,47.0,56.7,43.9,31.9,89,53,22,30.13,30.05,3,0,8,0.00
2013-5-3,67.8,55.0,45.7,56.4,49.3,41.8,90,82,60,30.05,29.79,4,0,5,0.00
2013-5-4,62.8,54.6,46.8,55.2,50.1,43.7,90,85,75,29.79,29.58,13,3,13,0.00
2013-5-5,61.0,55.9,53.6,54.1,50.9,49.6,89,84,75,29.80,29.60,18,10,22,0.06
2013-5-6,67.8,59.9,53.4,55.7,52.1,48.7,85,76,59,29.95,29.78,10,3,15,0.00
2013-5-7,66.5,57.8,51.3,57.8,52.7,48.2,90,83,70,30.03,29.94,4,1,7,0.00
2013-5-8,59.1,52.5,49.6,53.2,48.9,46.8,91,88,78,30.12,30.02,8,2,15,0.01
2013-5-9,60.7,53.5,47.4,53.4,49.0,44.3,90,85,76,30.16,30.08,10,4,15,0.00
2013-5-10,57.4,51.9,48.3,52.3,48.3,45.5,90,88,82,30.15,30.08,8,2,14,0.00
2013-5-11,62.9,51.6,46.9,55.6,48.1,44.1,91,88,74,30.12,30.05,6,1,8,0.00
2013-5-12,61.6,52.5,46.9,55.0,49.0,44.4,91,88,78,30.15,30.01,7,1,14,0.01
2013-5-13,62.6,53.9,46.1,55.4,49.5,43.3,90,85,76,30.08,29.93,9,3,21,0.00
2013-5-14,60.7,54.5,47.7,51.9,48.5,44.6,89,81,71,29.95,29.89,12,4,18,0.00
2013-5-15,59.6,54.6,47.2,51.6,48.6,43.9,89,80,71,30.04,29.96,8,5,16,0.00
2013-5-16,59.6,53.4,48.9,53.2,49.7,46.1,90,88,80,30.01,29.96,8,2,14,0.00
2013-5-17,61.7,53.3,44.9,53.8,48.1,41.6,90,83,73,30.06,29.95,9,3,12,0.00
2013-5-18,61.6,53.3,44.7,51.4,47.3,41.2,89,81,67,30.13,30.04,9,3,15,0.00
2013-5-19,64.2,54.4,47.8,52.3,47.8,43.2,88,79,64,30.12,29.97,9,2,16,0.00
2013-5-20,61.3,52.9,45.6,53.0,47.9,42.8,90,83,71,30.01,29.91,7,2,9,0.00
2013-5-21,59.5,52.8,47.0,49.8,46.5,39.8,89,79,67,30.00,29.89,15,7,26,0.00
2013-5-22,56.9,51.1,44.3,45.4,41.9,35.7,85,71,59,30.03,29.91,12,5,26,0.00
2013-5-23,59.6,52.1,45.3,48.7,45.0,41.1,86,77,63,30.00,29.90,9,4,18,0.00
2013-5-24,60.5,51.3,44.5,49.5,44.4,39.6,87,78,64,29.99,29.92,8,3,16,0.00
2013-5-25,59.2,52.0,44.7,49.8,46.0,40.9,89,81,70,30.03,29.93,9,3,17,0.00
2013-5-26,61.1,53.4,48.6,54.0,49.3,45.5,90,86,76,30.11,30.02,6,2,12,0.00
2013-5-27,56.4,52.8,47.4,53.5,49.8,44.6,90,89,87,30.10,29.96,5,1,7,0.31
2013-5-28,58.5,54.3,51.0,55.3,51.3,48.1,90,90,86,29.99,29.91,4,1,11,0.04
2013-5-29,61.8,54.6,49.2,55.8,50.4,45.8,90,86,76,29.97,29.90,10,3,19,0.00
2013-5-30,60.5,53.6,47.1,51.7,47.7,43.7,90,81,71,29.99,29.92,10,4,19,0.00
2013-5-31,64.8,54.2,46.4,53.3,47.8,42.6,88,79,62,30.01,29.92,8,2,14,0.00
2013-6-1,65.6,54.4,47.2,53.7,47.9,43.5,89,79,59,29.93,29.79,9,2,11,0.00
2013-6-2,61.8,53.7,46.3,53.1,48.4,43.3,90,83,72,29.79,29.63,8,2,14,0.00
2013-6-3,58.5,52.6,48.9,52.5,48.9,45.8,90,87,79,29.86,29.69,9,2,12,0.01
2013-6-4,57.0,52.8,50.9,53.1,49.7,48.1,90,89,85,29.96,29.84,6,1,6,0.00
2013-6-5,61.1,54.4,50.4,53.8,49.6,46.8,88,84,75,29.99,29.92,4,1,7,0.02
2013-6-6,60.2,52.4,49.6,53.5,48.3,45.9,88,86,78,29.94,29.83,5,1,13,0.01
2013-6-7,61.8,53.4,49.3,54.2,48.8,45.3,87,85,76,29.86,29.71,5,1,8,0.01
2013-6-8,61.6,55.2,51.7,55.4,50.7,47.4,86,85,79,29.83,29.70,8,2,12,0.00
2013-6-9,57.9,54.8,53.7,54.0,50.8,49.6,87,86,86,29.89,29.82,6,2,9,0.02
2013-6-10,61.6,56.4,53.8,56.0,51.5,49.1,87,84,78,29.94,29.80,6,2,10,0.09
2013-6-11,65.1,57.8,50.5,57.3,52.1,46.5,86,82,72,29.98,29.86,6,1,10,0.00
2013-6-12,62.4,54.8,46.9,53.1,48.4,42.9,86,79,70,29.99,29.88,9,4,20,0.00
2013-6-13,61.7,55.0,49.0,52.1,48.2,44.7,85,78,69,30.09,29.98,11,4,23,0.00
2013-6-14,63.0,53.9,47.4,53.0,47.9,43.1,86,80,69,29.99,29.80,6,2,12,0.00
2013-6-15,61.3,51.8,44.2,53.3,46.4,39.7,85,82,74,29.97,29.80,12,2,17,0.00
2013-6-16,62.7,53.9,47.0,54.1,47.9,42.1,86,80,69,30.08,29.96,11,3,19,0.01
2013-6-17,63.9,56.1,49.7,55.5,50.3,45.0,85,81,73,30.09,30.01,8,2,16,0.00
2013-6-18,61.4,54.1,50.1,54.1,49.0,44.8,86,83,76,30.03,29.97,7,2,13,0.00
2013-6-19,63.7,55.8,47.8,54.8,49.3,43.8,86,79,67,30.05,30.00,8,3,20,0.00
2013-6-20,62.7,55.4,46.5,53.3,48.8,42.1,86,79,68,30.00,29.94,10,3,20,0.00
2013-6-21,63.1,54.6,47.2,53.8,48.4,43.1,86,80,68,29.98,29.89,11,3,19,0.00
2013-6-22,64.3,55.9,47.7,54.2,49.4,43.4,85,79,64,29.93,29.83,12,3,22,0.00
2013-6-23,59.0,54.6,51.7,53.2,49.0,46.1,82,81,81,29.85,29.79,6,1,12,0.02
2013-6-24,57.4,55.1,52.8,51.8,49.8,47.5,83,82,82,29.87,29.77,6,2,9,0.33
2013-6-25,59.5,58.1,56.8,54.0,52.8,51.4,84,82,82,29.96,29.84,16,8,22,1.11
2013-6-26,68.3,61.7,58.7,62.6,56.5,53.2,87,83,81,30.06,29.94,3,0,5,0.07
2013-6-27,70.1,60.0,51.7,62.6,54.5,47.0,87,82,75,30.10,30.00,5,1,14,0.01
2013-6-28,67.5,58.8,52.8,59.2,53.6,48.3,87,83,73,30.01,29.89,7,1,12,0.00
2013-6-29,69.0,59.8,52.7,59.2,53.8,48.8,87,81,69,29.91,29.80,5,1,11,0.00
2013-6-30,65.0,57.5,51.5,57.4,52.2,47.5,87,83,74,29.84,29.75,7,2,15,0.00
2013-7-1,68.3,56.8,49.6,58.6,51.2,45.3,86,82,68,29.84,29.76,5,1,9,0.00
2013-7-2,67.3,58.4,52.7,58.9,53.2,48.3,86,83,73,29.90,29.79,13,2,15,0.00
2013-7-3,69.5,60.0,55.0,60.7,54.5,50.3,86,82,71,29.89,29.74,4,0,8,0.00
2013-7-4,72.8,61.7,53.6,64.3,55.0,48.8,86,79,66,29.78,29.68,10,4,19,0.00
2013-7-5,63.9,56.5,51.0,54.8,50.5,46.6,86,81,71,29.74,29.67,8,3,17,0.00
2013-7-6,59.3,52.8,49.7,53.8,48.3,45.4,86,85,81,29.80,29.71,8,2,12,0.00
2013-7-7,59.7,54.3,50.7,54.2,49.7,45.9,86,85,82,29.85,29.77,4,1,8,0.00
2013-7-8,60.5,54.8,50.9,55.3,50.2,46.2,86,84,82,29.96,29.85,5,1,8,0.02
2013-7-9,61.5,54.2,48.6,55.1,49.5,44.3,87,84,78,30.03,29.93,5,1,9,0.02
2013-7-10,58.5,52.8,49.1,53.1,48.4,44.8,87,85,80,29.98,29.91,4,1,7,0.02
2013-7-11,60.9,54.0,49.6,54.5,49.4,45.3,87,85,78,29.93,29.85,4,1,7,0.02
2013-7-12,61.5,55.0,51.5,55.3,50.6,47.8,87,85,79,29.94,29.85,4,1,9,0.00
2013-7-13,62.9,55.0,49.3,56.1,50.4,45.3,87,85,76,29.96,29.86,4,1,6,0.00
2013-7-14,61.8,54.5,50.4,55.7,50.0,46.4,87,85,78,29.99,29.90,8,2,11,0.00
2013-7-15,58.9,53.3,49.8,53.1,49.1,45.5,87,85,81,29.91,29.84,4,1,6,0.01
2013-7-16,60.4,55.7,52.4,56.2,51.6,48.1,87,86,85,30.00,29.84,5,1,10,0.00
2013-7-17,63.2,58.2,55.0,57.2,53.6,50.9,87,84,80,30.09,30.00,6,1,10,0.00
2013-7-18,58.5,53.7,50.8,54.0,49.5,46.8,87,86,85,30.03,29.91,4,0,9,0.00
2013-7-19,63.0,55.2,50.5,56.0,50.6,46.5,87,85,78,29.93,29.80,6,1,12,0.00
2013-7-20,62.0,54.5,49.7,56.1,50.0,45.7,87,85,79,29.83,29.72,7,1,10,0.01
2013-7-21,58.6,54.1,51.8,53.5,49.8,47.7,87,86,83,29.87,29.75,10,2,13,0.00
2013-7-22,61.5,56.7,52.1,56.6,52.5,48.0,87,86,83,29.95,29.86,5,2,9,0.00
2013-7-23,65.0,58.6,55.2,58.8,53.9,50.8,86,85,78,30.01,29.92,3,0,5,0.00
2013-7-24,63.9,56.5,52.4,56.9,52.0,48.3,87,85,77,29.99,29.91,4,1,7,0.00
2013-7-25,56.2,52.4,50.7,52.3,48.4,46.6,87,86,85,30.00,29.90,4,1,5,0.00
2013-7-26,61.4,54.9,51.4,55.9,50.6,47.4,87,85,82,30.07,30.00,4,1,5,0.01
2013-7-27,58.9,54.3,52.1,54.4,50.2,48.0,87,86,83,30.01,29.86,7,2,13,0.02
2013-7-28,56.9,53.4,51.2,53.1,49.4,47.2,87,86,86,29.87,29.79,8,2,12,0.01
2013-7-29,58.6,54.9,52.4,54.1,51.0,48.3,87,87,85,30.00,29.81,10,4,14,0.00
2013-7-30,59.1,54.2,52.0,54.6,50.3,48.3,87,87,84,30.09,30.00,5,1,9,0.00
2013-7-31,66.2,56.6,51.5,58.2,51.9,47.8,87,85,75,30.07,29.97,13,3,20,0.00
2013-8-1,64.1,56.8,52.2,56.3,51.8,48.4,87,84,73,30.04,29.93,11,3,24,0.00
2013-8-2,64.3,54.5,48.0,55.7,49.7,44.3,87,84,73,29.95,29.86,8,2,14,0.01
2013-8-3,58.5,52.8,48.1,53.4,48.8,44.4,87,86,82,29.97,29.87,4,0,7,0.01
2013-8-4,62.0,54.0,49.8,54.5,49.7,46.1,87,85,76,30.00,29.93,5,1,9,0.00
2013-8-5,57.5,53.4,51.7,53.0,49.5,48.0,87,87,85,30.01,29.95,7,1,10,0.02
2013-8-6,63.8,56.3,51.0,56.8,51.8,47.3,87,85,75,30.03,29.96,4,1,7,0.01
2013-8-7,62.7,58.1,54.8,58.0,54.1,51.0,87,86,82,30.08,30.01,7,2,11,0.02
2013-8-8,63.0,57.3,53.3,57.1,53.1,49.5,88,86,80,30.01,29.92,9,2,14,0.03
2013-8-9,63.2,56.0,50.9,56.4,51.7,47.3,88,86,78,29.97,29.89,7,2,10,0.00
2013-8-10,64.4,58.2,55.1,58.4,53.9,51.4,88,86,80,30.04,29.96,6,2,10,0.00
2013-8-11,62.2,55.6,51.0,56.5,51.8,47.6,89,87,81,30.00,29.92,5,1,10,0.00
2013-8-12,62.4,54.7,49.0,57.1,51.0,45.6,89,87,82,29.98,29.91,5,1,8,0.00
2013-8-13,64.5,55.3,48.3,57.8,51.0,44.9,89,86,77,29.99,29.89,4,1,7,0.01
2013-8-14,69.5,58.4,50.5,60.7,53.5,47.1,88,84,68,29.95,29.88,12,3,23,0.00
2013-8-15,71.5,61.1,53.8,63.9,56.4,50.3,88,85,74,29.95,29.88,3,0,10,0.02
2013-8-16,66.8,57.8,53.6,60.3,53.8,50.1,89,87,78,29.98,29.90,3,0,9,0.01
2013-8-17,69.7,58.5,51.6,60.7,53.5,48.2,89,84,70,29.96,29.83,10,3,17,0.00
2013-8-18,67.4,57.3,50.6,58.7,52.5,47.1,89,84,73,29.88,29.76,4,0,5,0.01
2013-8-19,67.2,58.1,54.0,59.9,54.2,50.5,88,87,77,29.91,29.77,5,1,7,0.00
2013-8-20,65.8,59.5,55.8,60.4,55.7,52.3,88,87,82,29.89,29.81,11,3,15,0.01
2013-8-21,65.5,59.5,56.4,58.0,55.0,52.9,89,85,74,29.93,29.86,5,1,8,0.00
2013-8-22,66.9,59.4,55.0,58.4,54.7,51.5,89,84,73,29.96,29.88,7,2,11,0.02
2013-8-23,63.2,57.9,54.6,57.3,53.8,51.1,88,86,80,29.90,29.78,7,2,16,0.00
2013-8-24,64.2,56.6,52.3,58.1,52.7,48.9,89,87,80,29.89,29.80,5,1,12,0.00
2013-8-25,70.3,60.6,55.0,63.6,56.7,51.5,88,87,79,29.93,29.85,5,1,7,0.00
2013-8-26,64.0,58.2,54.2,59.1,54.2,50.5,89,86,79,30.00,29.87,5,1,10,0.01
2013-8-27,68.6,57.5,49.4,61.1,53.2,46.3,89,86,74,29.87,29.81,6,1,11,0.00
2013-8-28,71.4,60.4,52.9,62.9,56.3,49.7,90,87,74,29.92,29.81,2,0,6,0.01
2013-8-29,71.3,62.2,55.9,63.9,58.0,52.4,88,86,76,30.05,29.92,5,1,10,0.03
2013-8-30,69.3,59.3,52.3,61.0,54.9,49.2,89,85,74,30.01,29.89,6,1,14,0.01
2013-8-31,68.1,57.0,51.2,59.9,53.0,48.1,89,86,74,29.95,29.88,5,1,12,0.01
2013-9-1,66.4,57.1,49.1,59.9,53.2,46.0,90,87,77,29.93,29.88,4,1,9,0.01
2013-9-2,73.8,62.0,55.5,64.1,57.7,52.1,89,86,71,29.94,29.87,4,0,10,0.00
2013-9-3,70.7,60.7,51.6,61.3,55.4,48.5,89,83,66,29.99,29.90,5,1,11,0.01
2013-9-4,69.4,60.6,52.7,61.6,55.7,49.5,89,84,75,30.01,29.91,8,2,14,0.01
2013-9-5,69.3,60.8,54.5,59.9,55.4,51.0,89,83,70,30.00,29.92,8,2,15,0.00
2013-9-6,75.1,62.2,52.0,58.2,53.9,48.6,88,75,53,29.96,29.82,3,0,7,0.01
2013-9-7,75.5,60.6,52.4,58.7,53.3,48.4,88,78,53,29.86,29.80,2,0,8,0.00
2013-9-8,63.7,56.0,49.4,56.9,51.7,46.0,89,86,76,29.86,29.76,5,1,6,0.00
2013-9-9,65.3,56.2,49.5,57.8,52.2,46.3,89,87,76,29.80,29.71,4,0,6,0.01
2013-9-10,61.9,59.0,55.6,58.3,55.5,52.0,89,88,88,29.87,29.71,11,4,13,0.02
2013-9-11,65.4,61.4,59.9,60.4,57.6,56.3,89,87,83,29.98,29.87,4,0,6,0.03
2013-9-12,64.9,60.1,55.7,60.0,56.5,52.4,89,88,82,29.96,29.86,0,0,0,0.02
2013-9-13,65.1,57.8,53.5,58.4,53.7,50.3,89,86,79,29.87,29.73,8,1,13,0.00
2013-9-14,65.2,57.5,52.9,58.0,53.1,49.7,89,85,75,29.80,29.72,8,2,14,0.00
2013-9-15,68.6,58.8,50.3,58.5,53.5,47.2,89,83,70,29.85,29.73,5,1,11,0.02
2013-9-16,68.0,58.2,51.9,58.1,53.2,48.8,89,84,68,29.87,29.76,9,2,15,0.00
2013-9-17,65.0,57.7,53.4,56.3,52.6,49.6,89,83,72,29.87,29.78,13,4,18,0.01
2013-9-18,67.9,57.8,50.6,56.6,50.7,46.6,87,78,59,29.90,29.80,9,1,14,0.00
2013-9-19,67.6,56.2,47.9,55.5,50.1,44.1,88,81,64,29.84,29.74,4,0,7,0.00
2013-9-20,71.2,57.3,48.4,59.5,52.7,44.7,88,85,61,29.83,29.73,12,2,15,0.11
2013-9-21,67.2,59.4,53.2,61.2,55.0,49.3,89,86,77,29.87,29.75,7,1,11,0.22
2013-9-22,67.4,58.0,49.4,57.4,52.4,46.0,88,82,69,29.98,29.87,7,1,12,0.01
2013-9-23,73.5,62.2,56.3,63.4,56.2,51.0,87,81,66,30.00,29.91,5,1,10,0.00
2013-9-24,67.1,59.0,53.3,58.0,53.6,49.5,87,82,71,29.99,29.91,9,2,15,0.00
2013-9-25,64.4,57.0,49.3,54.4,50.2,45.1,87,78,69,29.93,29.82,10,4,11,0.00
2013-9-26,66.0,56.3,47.4,52.7,46.8,40.7,80,71,54,29.98,29.84,8,2,17,0.00
2013-9-27,70.6,56.8,49.7,52.0,46.4,39.7,86,69,38,30.08,29.97,6,1,10,0.00
2013-9-28,68.6,59.8,47.6,57.2,50.1,43.3,87,72,50,30.07,30.00,5,1,9,0.00
2013-9-29,63.0,58.7,54.4,59.1,54.8,50.6,87,87,86,30.07,30.01,7,2,9,0.04
2013-9-30,65.7,59.0,52.6,61.3,54.7,46.9,88,86,74,30.02,29.96,8,1,10,0.08
2013-10-1,66.1,57.6,50.6,55.4,50.4,46.8,88,77,63,29.99,29.90,7,2,16,0.00
2013-10-2,63.8,55.7,48.3,53.3,48.5,44.6,88,77,62,30.00,29.90,8,3,21,0.00
2013-10-3,68.6,59.0,49.1,49.9,44.4,31.8,76,60,26,30.07,29.95,13,3,25,0.00
2013-10-4,77.5,65.4,54.0,47.4,36.1,26.9,63,35,21,30.06,29.96,15,2,24,0.00
2013-10-5,83.6,67.8,54.3,40.7,32.7,26.9,48,28,15,30.14,30.05,8,1,13,0.00
2013-10-6,84.8,69.4,59.0,49.5,35.4,29.8,44,30,17,30.08,29.96,13,3,18,0.00
2013-10-7,67.5,58.6,51.0,51.9,42.2,30.8,85,57,30,29.96,29.85,6,1,11,0.00
2013-10-8,64.5,54.9,47.2,52.9,47.8,42.8,86,77,61,29.89,29.69,8,2,16,0.00
2013-10-9,64.7,55.4,49.0,49.3,46.8,42.9,85,74,53,29.73,29.60,8,2,16,0.00
2013-10-10,59.9,52.6,45.8,52.3,47.2,41.7,87,82,73,29.98,29.72,9,1,12,0.00
2013-10-11,58.7,50.8,46.0,50.6,46.5,42.4,88,85,74,30.07,29.96,3,0,5,0.00
2013-10-12,60.4,50.5,42.7,51.3,46.0,39.4,89,85,71,29.99,29.88,7,2,14,0.01
2013-10-13,68.4,54.1,46.6,53.4,48.2,43.2,88,81,55,30.03,29.90,4,0,10,0.01
2013-10-14,70.5,57.3,45.6,51.3,44.4,39.5,88,65,36,30.09,29.99,3,0,6,0.00
2013-10-15,74.5,59.3,47.5,47.9,41.2,34.4,79,54,24,30.01,29.94,5,0,10,0.00
2013-10-16,78.2,62.5,48.2,48.1,38.3,31.9,80,43,25,30.04,29.96,8,1,8,0.00
2013-10-17,70.7,57.7,48.1,52.0,41.2,32.7,88,57,32,30.05,29.95,3,0,5,0.00
2013-10-18,55.6,49.3,45.3,51.5,45.7,42.2,89,87,82,30.04,29.96,2,0,6,0.01
2013-10-19,57.2,47.2,43.5,51.7,43.9,40.5,90,89,79,30.06,30.00,3,0,6,0.01
2013-10-20,54.3,48.4,41.5,50.8,45.2,38.8,90,89,85,30.00,29.91,2,0,3,0.01
2013-10-21,55.2,48.8,43.9,50.8,45.6,41.1,90,89,84,29.98,29.91,4,0,6,0.00
2013-10-22,53.8,48.7,44.8,50.5,45.8,42.0,90,90,87,30.00,29.92,2,0,5,0.01
2013-10-23,51.5,48.8,46.6,48.7,46.0,43.5,90,90,89,29.96,29.90,4,1,9,0.01
2013-10-24,61.4,51.9,46.8,52.2,47.5,44.0,90,85,69,30.08,29.94,5,1,13,0.00
2013-10-25,61.1,52.3,46.7,53.5,47.8,43.4,90,85,71,30.16,30.07,5,1,10,0.01
2013-10-26,59.2,49.6,45.2,53.2,45.7,-99.9,90,88,77,30.13,30.01,3,0,5,0.02
2013-10-27,58.2,50.5,45.9,54.2,47.0,43.1,90,88,80,30.01,29.64,14,4,21,0.01
2013-10-28,60.8,53.4,47.4,52.1,48.0,43.4,88,82,70,29.79,29.64,9,2,16,0.00
2013-10-29,60.2,52.1,45.9,51.3,46.8,42.6,89,83,68,30.03,29.79,6,1,11,0.00
2013-10-30,61.3,50.9,42.9,51.8,46.0,39.9,89,84,70,30.15,30.01,5,1,7,0.01
2013-10-31,64.1,53.2,44.8,50.8,45.9,41.1,88,77,56,30.14,30.05,3,0,5,0.00
2013-11-1,66.5,55.2,47.1,53.3,47.4,43.1,88,76,53,30.11,29.99,5,1,11,0.00
2013-11-2,60.6,51.8,44.5,54.6,46.7,41.2,88,83,66,30.01,29.89,10,1,17,0.01
2013-11-3,60.7,50.7,43.6,47.8,40.6,33.6,82,69,48,30.04,29.92,6,1,13,0.00
2013-11-4,64.0,51.8,41.5,47.9,41.7,35.0,80,69,48,30.07,29.90,7,1,14,0.00
2013-11-5,66.1,53.6,46.4,50.9,44.2,37.2,86,71,48,30.18,30.06,4,1,6,0.00
2013-11-6,69.5,57.4,48.9,52.4,46.7,39.0,86,69,44,30.22,30.13,5,0,7,0.00
2013-11-7,67.0,56.7,49.2,53.8,46.6,39.5,88,70,43,30.15,30.04,6,1,11,0.00
2013-11-8,62.4,53.0,46.3,54.3,47.9,42.6,88,83,69,30.06,29.93,5,1,14,0.01
2013-11-9,67.2,54.5,44.3,51.8,46.9,40.6,88,77,51,30.03,29.94,4,1,6,0.00
2013-11-10,60.5,54.4,47.9,52.2,49.1,44.4,88,83,72,30.09,29.99,8,2,11,0.00
2013-11-11,62.3,54.7,47.1,52.8,48.7,43.4,88,81,66,30.14,30.03,7,1,13,0.00
2013-11-12,68.6,58.5,52.0,53.7,50.8,48.3,88,76,57,30.25,30.12,7,1,13,0.00
2013-11-13,61.5,52.6,48.6,54.3,48.8,44.6,88,87,76,30.23,30.06,4,1,10,0.01
2013-11-14,59.4,51.9,46.3,53.9,47.7,42.3,88,86,79,30.08,29.88,7,2,19,0.01
2013-11-15,62.0,52.7,46.0,50.2,45.8,39.9,87,78,56,29.88,29.71,5,1,17,0.00
2013-11-16,60.9,52.3,46.0,52.0,46.3,39.7,88,80,68,29.90,29.74,7,2,17,0.00
2013-11-17,60.4,50.1,43.6,51.6,45.2,40.3,88,83,65,30.05,29.89,1,0,4,0.01
2013-11-18,58.3,51.1,44.1,51.6,46.7,40.6,88,85,71,30.12,30.05,9,1,12,0.06
2013-11-19,55.0,53.5,51.4,51.5,49.9,48.0,88,87,87,30.06,29.89,13,8,22,0.94
2013-11-20,55.3,52.7,49.4,51.5,49.1,46.0,89,88,86,29.89,29.83,7,1,11,0.30
2013-11-21,65.7,53.6,47.4,53.0,41.3,16.1,89,71,19,29.95,29.87,24,3,31,0.01
2013-11-22,71.6,61.3,50.7,44.0,23.3,11.3,63,24,13,30.00,29.88,18,3,28,0.00
2013-11-23,65.0,56.4,47.7,42.9,31.3,14.7,61,40,15,30.07,29.90,5,0,6,0.00
2013-11-24,66.8,52.7,45.3,49.2,43.6,30.1,87,73,36,30.22,30.06,7,1,10,0.00
2013-11-25,65.9,54.9,46.0,47.9,42.9,40.2,85,65,43,30.28,30.20,13,4,17,0.00
2013-11-26,66.5,56.6,49.3,48.3,42.5,38.9,77,60,39,30.23,29.99,13,3,18,0.00
2013-11-27,67.4,58.0,51.9,45.6,42.0,39.0,64,55,44,29.99,29.80,16,9,23,0.00
2013-11-28,68.1,56.1,48.2,51.8,45.5,40.9,85,69,44,30.04,29.82,13,1,16,0.00
2013-11-29,65.2,53.6,45.2,52.7,46.3,40.3,86,77,57,30.19,30.04,3,0,6,0.00
2013-11-30,59.7,51.7,46.2,52.1,46.6,41.6,87,83,74,30.26,30.17,3,0,7,0.00
2013-12-1,66.4,54.0,45.9,53.2,47.4,42.2,87,79,58,30.32,30.19,2,0,4,0.01
2013-12-2,61.5,52.7,44.6,53.3,48.0,41.0,87,84,74,30.20,29.93,9,2,19,0.04
2013-12-3,54.6,48.8,41.3,47.3,39.4,32.1,87,70,57,29.93,29.82,15,6,21,0.00
2013-12-4,53.9,44.0,36.6,38.1,32.4,28.1,77,64,43,30.06,29.93,7,1,9,0.00
2013-12-5,52.0,42.8,36.1,37.2,30.4,24.6,77,62,42,30.13,30.05,5,1,9,0.00
2013-12-6,51.1,43.4,34.6,47.0,35.6,26.4,87,75,44,30.15,29.88,16,3,24,0.20
2013-12-7,50.9,42.7,32.7,41.8,32.1,24.0,86,67,42,30.24,29.90,13,2,16,0.00
2013-12-8,52.7,40.0,34.1,29.1,24.7,19.3,73,56,31,30.29,30.21,9,3,13,0.00
2013-12-9,53.1,42.4,33.4,38.3,29.1,19.1,81,60,39,30.38,30.27,7,1,11,0.00
2013-12-10,53.2,44.3,36.0,44.9,33.1,20.6,85,65,47,30.37,30.17,7,1,10,0.00
2013-12-11,59.1,48.1,38.7,43.3,35.3,29.3,79,62,43,30.21,30.15,12,1,14,0.00
2013-12-12,60.7,49.6,41.9,45.7,37.9,31.0,86,65,44,30.23,30.15,16,3,21,0.00
2013-12-13,58.1,47.5,40.1,48.1,40.3,34.1,87,77,55,30.31,30.20,3,0,5,0.00
2013-12-14,51.5,44.0,38.9,47.1,40.4,35.3,88,87,84,30.38,30.27,2,0,4,0.01
2013-12-15,56.1,45.9,37.7,48.8,41.3,34.2,88,84,75,30.33,30.21,3,0,7,0.01
2013-12-16,66.2,53.8,44.1,47.4,41.8,37.7,85,65,42,30.21,30.08,13,1,20,0.00
2013-12-17,65.3,54.5,44.2,49.3,41.8,36.6,87,64,44,30.11,30.00,17,3,24,0.00
2013-12-18,56.6,48.0,42.3,49.8,44.0,38.7,88,86,76,30.01,29.77,11,1,19,0.01
2013-12-19,57.5,49.5,42.2,44.8,39.5,29.3,85,69,58,29.93,29.72,12,2,21,0.00
2013-12-20,60.1,48.4,40.0,46.7,34.7,22.4,85,60,42,29.99,29.90,6,1,15,0.00
2013-12-21,58.7,51.6,44.7,51.4,47.0,41.1,88,84,76,30.06,29.95,7,2,19,0.00
2013-12-22,65.2,52.9,44.9,50.7,43.4,38.7,88,71,50,30.25,30.05,2,0,5,0.00
2013-12-23,65.6,56.0,49.1,48.3,42.4,38.0,76,61,50,30.36,30.25,12,1,16,0.00
2013-12-24,64.7,52.4,44.1,49.6,44.0,40.5,87,74,53,30.31,30.17,2,0,7,0.00
2013-12-25,65.5,53.4,43.5,50.1,44.0,37.8,87,71,51,30.26,30.17,2,0,4,0.00
2013-12-26,69.0,55.3,44.7,48.0,39.6,32.9,79,57,40,30.21,30.12,13,2,18,0.00
2013-12-27,66.6,55.6,43.0,46.6,36.9,30.3,81,52,27,30.16,30.09,17,7,23,0.00
2013-12-28,59.4,48.3,40.3,47.8,41.0,31.8,86,76,49,30.13,30.01,2,0,4,0.00
2013-12-29,66.3,53.7,42.8,43.1,34.7,24.9,80,50,28,30.14,30.04,9,0,11,0.00
2013-12-30,65.5,53.5,44.8,48.2,39.2,32.2,87,61,33,30.22,30.12,16,4,22,0.00
2013-12-31,56.5,48.0,42.1,48.6,43.2,38.5,87,84,72,30.25,30.14,4,1,7,0.00
2014-1-1,57.8,45.8,41.0,50.6,41.5,37.4,88,85,75,30.18,30.10,3,0,2,0.01
2014-1-2,68.0,51.3,41.4,50.3,42.7,38.0,88,74,38,30.14,30.02,3,0,0,0.01